Nicholas Christofi

Chief Scout - Omonoia
14 Nov 2027
Sunday
Process

Personality

Adaptability (13) Ambition (5) Controversy (3) Loyalty (20) Pressure (1) Professionalism (7) Sportsmanship (3) Temperament (12)

Profile

Coaching Style Democratic
License National B
Determination 8
Man Management 6
Motivating 12
Discipline 11
Job Satisfaction
100%
Fatigue
0%
Role Chief Scout
Wage 41.5K p/w
Contract 14.03.2029

Performance

Behaviour Good
Training Effectiveness
43%
Player Development
35%
Injury Prevention
45%
Tactical Implementation
55%

Currently Monitoring

87
Player Club Status Ability Confidence Watched Last Observed Latest Vote
Matías Canedo Rampla Juniors Active 88 / 87 40% 2 31.08.2027 -
Nikolay Sotnikov Arsenal Dzerzhinsk Active 81 / 87 40% 2 31.08.2027 -
Ivan Borges Defensores Active 77 / 85 40% 1 30.08.2027 -
Drew Baiera New York City Active 99 / 104 40% 1 24.08.2027 -
Pablo Alcoba Albion Active 84 / 97 40% 2 23.08.2027 -
Santino Baldassarri Quilmes Active 85 / 85 40% 1 23.08.2027 -
Hosea Michael Remo Stars Active 77 / 94 40% 2 22.08.2027 -
Enzo Cardozo Huracán Active 97 / 122 40% 2 22.08.2027 -
Uzoigwe Odinaka Gazelle Active 64 / 81 40% 1 21.08.2027 -
Fabián Correa Barranquilla Active 87 / 96 40% 1 21.08.2027 -
Juan Diego Perdomo Depor Active 99 / 83 40% 2 20.08.2027 -
Thiago Sánchez Tigre Active 91 / 100 40% 1 20.08.2027 -
Teo Rodríguez Pagano San Lorenzo Active 129 / 131 40% 3 17.08.2027 -
Santiago Espíndola River Plate Active 93 / 123 40% 1 17.08.2027 -
Pyry Mentu HJK Active 111 / 117 40% 1 14.08.2027 -
Mattia Puzone Siracusa Active 84 / 116 40% 1 14.08.2027 -
Abdoul Djire Ararat Active 96 / 107 40% 4 13.08.2027 -
Zahir Ibarra Unión de Santa Fe Active 95 / 110 40% 1 13.08.2027 -
Lucio Cruceño Godoy Cruz Active 100 / 101 40% 1 12.08.2027 -
Simone Kosijer Triestina Active 103 / 114 40% 4 11.08.2027 -
Ulises Giménez River Plate Active 111 / 108 40% 1 10.08.2027 -
Mauro Carrizo Atlético Tucumán Active 103 / 110 40% 1 10.08.2027 -
Seth Ridgeon Fulham Active 118 / 105 40% 1 09.08.2027 -
Alexandr Voronovich Niva Active 56 / 76 40% 1 08.08.2027 -
Facundo Balatti Penarol Active 111 / 118 40% 4 07.08.2027 -
Enzo Galli Patronato Active 88 / 100 40% 1 06.08.2027 -
José Movillo O'Higgins Active 94 / 85 40% 1 04.08.2027 -
Hlompho Billiat Free State Stars Active 110 / 95 40% 2 02.08.2027 -
Oussama Benattia ASO Chlef Active 107 / 80 40% 1 02.08.2027 -
Augusto Bando Ascoli Active 117 / 119 40% 3 31.07.2027 -
Ibrahim Sabiu Bendel Insurance Active 77 / 97 40% 1 31.07.2027 -
Vasco Santos Oliveirense Active 93 / 96 40% 4 29.07.2027 -
Nazareno Roselli Defensa y Justicia Active 110 / 113 40% 2 28.07.2027 -
Alfie Cresswell Derby County Active 110 / 114 40% 2 27.07.2027 -
Musa Danjuma Hatayspor Active 87 / 95 40% 2 26.07.2027 -
Yoram Zague Paris Saint-Germain Active 120 / 124 40% 2 25.07.2027 -
Kian Best Eibar Active 123 / 118 40% 3 21.07.2027 -
Elie N'Gatta Sochaux Active 89 / 98 40% 3 19.07.2027 -
Dimos Papakonstantinou Luki-Energiya Active 90 / 88 40% 1 15.07.2027 -
Dylan Gorosito Boca Juniors Active 122 / 121 40% 1 13.07.2027 -
Kaick FC Dallas Active 95 / 118 40% 2 09.07.2027 -
Pedro Manoel Tammeka Active 104 / 102 40% 1 09.07.2027 -
Olalekan Adeleke Remo Stars Active 93 / 106 40% 2 04.07.2027 -
Mikhail Ryadno Baltika Active 110 / 94 40% 2 03.07.2027 -
Lucas Velásquez Huachipato Active 99 / 103 40% 2 02.07.2027 -
Jonathan Pérez Guadalajara Active 124 / 121 40% 2 26.06.2027 -
Yury Petin Chaika Active 85 / 92 40% 1 24.06.2027 -
Mandla Mothiba Free State Stars Active 97 / 89 40% 4 21.06.2027 -
Mats Egbring Heerenveen Active 108 / 118 40% 1 18.06.2027 -
Victor Corona Santos Laguna Active 110 / 98 40% 2 15.06.2027 -
Nicolae Milinceanu Doxa Active 105 / 92 48% 1 14.06.2027 -
Vincent Burlet Cracovia Active 89 / 111 40% 1 12.06.2027 -
Lucas Mbamba Westerlo Active 70 / 99 40% 1 10.06.2027 -
Alexandr Burkov Spartak Nalchik Active 75 / 78 40% 1 09.06.2027 -
Leonardo Mendicino Bari Active 108 / 134 40% 1 08.06.2027 -
Marius Louër Angers SCO Active 122 / 114 40% 1 07.06.2027 -
Charalabos Erotokritou Doxa Active 82 / 95 40% 1 01.06.2027 -
Christos Giousis Nea Salamis Active 110 / 96 40% 2 29.01.2027 -
Roger Martínez Al-Shabab Active 142 / 120 40% 1 29.01.2027 -
François Kamano Sochi Active 133 / 131 40% 1 27.01.2027 -
Migran Ageyan Ufa Active 87 / 108 40% 1 27.01.2027 -
Kamran Aliev SKA Khabarovsk Active 106 / 99 40% 2 25.01.2027 -
Nicolás Andereggen Ethnikos Achnas Active 124 / 119 40% 2 18.01.2027 -
Pedro Marques Apollon Active 100 / 107 40% 2 13.01.2027 -
Dmitry Tsypchenko Torpedo Moscow Active 95 / 96 40% 1 12.01.2027 -
Alexandr Yushin Torpedo Moscow Active 112 / 115 40% 1 08.01.2027 -
Razhab Magomedov Dinamo Makhachkala Active 118 / 95 40% 1 07.01.2027 -
Juan Peñaloza Lokomotiv Moscow Active 115 / 112 40% 1 07.01.2027 -
Daniil Agureev Amkar Active 78 / 80 40% 1 06.01.2027 -
Shayne Lavery Cambridge United Active 124 / 96 40% 1 06.01.2027 -
Rufat Garayev Ravan Active 113 / 109 40% 1 05.01.2027 -
Martin Georgiev AEK Active 94 / 101 40% 1 02.01.2027 -
Devante Cole Luton Town Active 91 / 107 40% 1 30.08.2026 -
Musa Qurbanlı Qarabag Active 95 / 103 40% 2 29.08.2026 -
Jordan Roberts Everton Active 129 / 125 40% 2 29.08.2026 -
Justin-Noël Kalumba Mallorca Active 91 / 116 40% 1 28.08.2026 -
Renaldo Cephas Qarabag Active 117 / 118 40% 1 27.08.2026 -
Agustín Bianciotti Metropolitanos Active 99 / 92 40% 1 26.08.2026 -
Diego Valencia Universidad Catolica Active 119 / 118 40% 1 26.08.2026 -
Albin Andersson Falkenberg Active 103 / 119 40% 2 24.08.2026 -
Enzo Cabrera AE Kition Active 106 / 101 40% 1 21.08.2026 -
Adam Taggart Qarabag Active 118 / 126 40% 1 19.08.2026 -
Ajay Matthews Millwall Active 101 / 124 40% 1 18.08.2026 -
Nicolás Contín Saburtalo Active 117 / 105 40% 1 18.08.2026 -
Dani Escriche Apollon Active 126 / 110 40% 1 11.08.2026 -
Valentin Costache Noah Active 115 / 117 40% 1 10.08.2026 -
Alejandro Samudio Nacional Active 97 / 102 40% 1 01.08.2026 -